sensor_id;sensor_type;location;lat;lon;timestamp;P1;durP1;ratioP1;P2;durP2;ratioP2
19434;SDS011;9853;50.848;4.108;2023-04-24T00:00:16;27.67;;;11.18;;
19434;SDS011;9853;50.848;4.108;2023-04-24T00:02:17;26.48;;;12.05;;
19434;SDS011;9853;50.848;4.108;2023-04-24T00:04:18;29.92;;;11.18;;
19434;SDS011;9853;50.848;4.108;2023-04-24T00:06:19;25.42;;;11.23;;
19434;SDS011;9853;50.848;4.108;2023-04-24T00:08:20;26.27;;;11.15;;
19434;SDS011;9853;50.848;4.108;2023-04-24T00:10:22;26.88;;;11.50;;
19434;SDS011;9853;50.848;4.108;2023-04-24T00:12:23;31.83;;;12.50;;
19434;SDS011;9853;50.848;4.108;2023-04-24T00:14:25;20.10;;;12.15;;
19434;SDS011;9853;50.848;4.108;2023-04-24T00:16:25;20.88;;;11.40;;
19434;SDS011;9853;50.848;4.108;2023-04-24T00:18:26;29.92;;;11.13;;
19434;SDS011;9853;50.848;4.108;2023-04-24T00:20:27;29.95;;;11.60;;
19434;SDS011;9853;50.848;4.108;2023-04-24T00:22:29;23.25;;;11.30;;
19434;SDS011;9853;50.848;4.108;2023-04-24T00:24:31;24.30;;;11.05;;
19434;SDS011;9853;50.848;4.108;2023-04-24T00:26:31;23.73;;;11.05;;
19434;SDS011;9853;50.848;4.108;2023-04-24T00:28:32;21.17;;;11.80;;
19434;SDS011;9853;50.848;4.108;2023-04-24T00:30:33;23.80;;;10.77;;
19434;SDS011;9853;50.848;4.108;2023-04-24T00:32:34;27.23;;;11.05;;
19434;SDS011;9853;50.848;4.108;2023-04-24T00:34:35;30.33;;;11.55;;
19434;SDS011;9853;50.848;4.108;2023-04-24T00:36:36;24.50;;;11.10;;
19434;SDS011;9853;50.848;4.108;2023-04-24T00:38:36;23.70;;;10.82;;
19434;SDS011;9853;50.848;4.108;2023-04-24T00:40:37;20.23;;;11.32;;
19434;SDS011;9853;50.848;4.108;2023-04-24T00:42:39;23.88;;;11.90;;
19434;SDS011;9853;50.848;4.108;2023-04-24T00:44:40;26.40;;;11.65;;
19434;SDS011;9853;50.848;4.108;2023-04-24T00:46:41;23.00;;;11.38;;
19434;SDS011;9853;50.848;4.108;2023-04-24T00:48:43;21.58;;;11.13;;
19434;SDS011;9853;50.848;4.108;2023-04-24T00:50:44;19.33;;;10.52;;
19434;SDS011;9853;50.848;4.108;2023-04-24T00:52:47;24.05;;;11.30;;
19434;SDS011;9853;50.848;4.108;2023-04-24T00:54:49;26.00;;;11.73;;
19434;SDS011;9853;50.848;4.108;2023-04-24T00:56:50;27.23;;;11.80;;
19434;SDS011;9853;50.848;4.108;2023-04-24T00:58:51;22.83;;;11.50;;
19434;SDS011;9853;50.848;4.108;2023-04-24T01:00:52;19.00;;;11.32;;
19434;SDS011;9853;50.848;4.108;2023-04-24T01:02:54;25.00;;;11.73;;
19434;SDS011;9853;50.848;4.108;2023-04-24T01:04:55;27.15;;;11.75;;
19434;SDS011;9853;50.848;4.108;2023-04-24T01:06:57;21.75;;;11.73;;
19434;SDS011;9853;50.848;4.108;2023-04-24T01:08:58;22.63;;;11.65;;
19434;SDS011;9853;50.848;4.108;2023-04-24T01:11:00;26.83;;;11.80;;
19434;SDS011;9853;50.848;4.108;2023-04-24T01:13:03;25.85;;;11.38;;
19434;SDS011;9853;50.848;4.108;2023-04-24T01:15:05;22.80;;;11.60;;
19434;SDS011;9853;50.848;4.108;2023-04-24T01:17:06;26.30;;;11.32;;
19434;SDS011;9853;50.848;4.108;2023-04-24T01:19:09;22.35;;;11.77;;
19434;SDS011;9853;50.848;4.108;2023-04-24T01:21:13;23.65;;;10.80;;
19434;SDS011;9853;50.848;4.108;2023-04-24T01:23:15;18.23;;;10.40;;
19434;SDS011;9853;50.848;4.108;2023-04-24T01:25:16;18.65;;;10.45;;
19434;SDS011;9853;50.848;4.108;2023-04-24T01:27:17;18.25;;;9.50;;
19434;SDS011;9853;50.848;4.108;2023-04-24T01:29:19;19.63;;;9.02;;
19434;SDS011;9853;50.848;4.108;2023-04-24T01:31:20;15.02;;;8.77;;
19434;SDS011;9853;50.848;4.108;2023-04-24T01:33:21;19.85;;;8.60;;
19434;SDS011;9853;50.848;4.108;2023-04-24T01:35:22;17.05;;;8.32;;
19434;SDS011;9853;50.848;4.108;2023-04-24T01:37:23;14.80;;;8.05;;
19434;SDS011;9853;50.848;4.108;2023-04-24T01:39:24;14.52;;;8.10;;
19434;SDS011;9853;50.848;4.108;2023-04-24T01:41:27;16.67;;;7.78;;
19434;SDS011;9853;50.848;4.108;2023-04-24T01:43:29;15.98;;;8.07;;
19434;SDS011;9853;50.848;4.108;2023-04-24T01:45:32;17.02;;;7.95;;
19434;SDS011;9853;50.848;4.108;2023-04-24T01:47:33;17.63;;;8.35;;
19434;SDS011;9853;50.848;4.108;2023-04-24T01:49:33;15.82;;;8.75;;
19434;SDS011;9853;50.848;4.108;2023-04-24T01:51:34;18.05;;;9.25;;
19434;SDS011;9853;50.848;4.108;2023-04-24T01:53:37;15.68;;;9.00;;
19434;SDS011;9853;50.848;4.108;2023-04-24T01:55:37;15.25;;;8.65;;
19434;SDS011;9853;50.848;4.108;2023-04-24T01:57:39;13.98;;;7.82;;
19434;SDS011;9853;50.848;4.108;2023-04-24T01:59:40;17.45;;;8.07;;
19434;SDS011;9853;50.848;4.108;2023-04-24T02:01:41;18.58;;;7.88;;
19434;SDS011;9853;50.848;4.108;2023-04-24T02:03:41;17.95;;;8.25;;
19434;SDS011;9853;50.848;4.108;2023-04-24T02:05:45;17.90;;;7.95;;
19434;SDS011;9853;50.848;4.108;2023-04-24T02:07:46;18.17;;;8.15;;
19434;SDS011;9853;50.848;4.108;2023-04-24T02:09:47;20.67;;;8.02;;
19434;SDS011;9853;50.848;4.108;2023-04-24T02:11:48;15.90;;;7.55;;
19434;SDS011;9853;50.848;4.108;2023-04-24T02:13:48;23.83;;;7.93;;
19434;SDS011;9853;50.848;4.108;2023-04-24T02:15:50;18.55;;;7.90;;
19434;SDS011;9853;50.848;4.108;2023-04-24T02:17:51;15.15;;;8.30;;
19434;SDS011;9853;50.848;4.108;2023-04-24T02:19:51;16.92;;;8.32;;
19434;SDS011;9853;50.848;4.108;2023-04-24T02:21:52;18.50;;;8.60;;
19434;SDS011;9853;50.848;4.108;2023-04-24T02:23:53;17.88;;;8.73;;
19434;SDS011;9853;50.848;4.108;2023-04-24T02:25:54;18.13;;;8.55;;
19434;SDS011;9853;50.848;4.108;2023-04-24T02:27:55;25.13;;;8.65;;
19434;SDS011;9853;50.848;4.108;2023-04-24T02:29:56;17.23;;;9.00;;
19434;SDS011;9853;50.848;4.108;2023-04-24T02:31:57;18.92;;;8.60;;
19434;SDS011;9853;50.848;4.108;2023-04-24T02:33:58;17.30;;;8.48;;
19434;SDS011;9853;50.848;4.108;2023-04-24T02:35:58;13.52;;;8.25;;
19434;SDS011;9853;50.848;4.108;2023-04-24T02:37:59;16.60;;;8.55;;
19434;SDS011;9853;50.848;4.108;2023-04-24T02:40:00;18.92;;;9.05;;
19434;SDS011;9853;50.848;4.108;2023-04-24T02:42:01;20.17;;;9.07;;
19434;SDS011;9853;50.848;4.108;2023-04-24T02:44:02;22.38;;;7.93;;
19434;SDS011;9853;50.848;4.108;2023-04-24T02:46:03;17.48;;;8.90;;
19434;SDS011;9853;50.848;4.108;2023-04-24T02:48:03;18.13;;;8.65;;
19434;SDS011;9853;50.848;4.108;2023-04-24T02:50:04;23.50;;;8.77;;
19434;SDS011;9853;50.848;4.108;2023-04-24T02:52:06;13.70;;;7.70;;
19434;SDS011;9853;50.848;4.108;2023-04-24T02:54:07;15.80;;;7.90;;
19434;SDS011;9853;50.848;4.108;2023-04-24T02:56:09;13.77;;;7.70;;
19434;SDS011;9853;50.848;4.108;2023-04-24T02:58:12;18.25;;;8.30;;
19434;SDS011;9853;50.848;4.108;2023-04-24T03:00:13;20.92;;;8.68;;
19434;SDS011;9853;50.848;4.108;2023-04-24T03:02:14;14.43;;;8.25;;
19434;SDS011;9853;50.848;4.108;2023-04-24T03:04:15;15.45;;;8.68;;
19434;SDS011;9853;50.848;4.108;2023-04-24T03:06:16;13.90;;;7.33;;
19434;SDS011;9853;50.848;4.108;2023-04-24T03:08:17;20.83;;;7.97;;
19434;SDS011;9853;50.848;4.108;2023-04-24T03:10:18;14.13;;;7.53;;
19434;SDS011;9853;50.848;4.108;2023-04-24T03:12:19;19.92;;;7.60;;
19434;SDS011;9853;50.848;4.108;2023-04-24T03:14:20;14.80;;;8.23;;
19434;SDS011;9853;50.848;4.108;2023-04-24T03:16:21;12.82;;;7.35;;
19434;SDS011;9853;50.848;4.108;2023-04-24T03:18:21;17.33;;;7.80;;
19434;SDS011;9853;50.848;4.108;2023-04-24T03:20:24;16.42;;;7.22;;
19434;SDS011;9853;50.848;4.108;2023-04-24T03:22:25;16.40;;;7.77;;
19434;SDS011;9853;50.848;4.108;2023-04-24T03:24:26;13.82;;;7.93;;
19434;SDS011;9853;50.848;4.108;2023-04-24T03:26:29;14.57;;;7.65;;
19434;SDS011;9853;50.848;4.108;2023-04-24T03:28:46;10.15;;;7.13;;
19434;SDS011;9853;50.848;4.108;2023-04-24T03:30:47;15.50;;;6.82;;
19434;SDS011;9853;50.848;4.108;2023-04-24T03:32:49;12.82;;;7.55;;
19434;SDS011;9853;50.848;4.108;2023-04-24T03:34:55;11.45;;;6.82;;
19434;SDS011;9853;50.848;4.108;2023-04-24T03:36:56;10.75;;;6.82;;
19434;SDS011;9853;50.848;4.108;2023-04-24T03:38:57;11.95;;;6.38;;
19434;SDS011;9853;50.848;4.108;2023-04-24T03:41:03;11.52;;;6.28;;
19434;SDS011;9853;50.848;4.108;2023-04-24T03:43:14;11.40;;;6.30;;
19434;SDS011;9853;50.848;4.108;2023-04-24T03:45:15;10.10;;;5.93;;
19434;SDS011;9853;50.848;4.108;2023-04-24T03:47:20;8.70;;;5.80;;
19434;SDS011;9853;50.848;4.108;2023-04-24T03:49:22;7.47;;;5.40;;
19434;SDS011;9853;50.848;4.108;2023-04-24T03:51:23;9.73;;;5.32;;
19434;SDS011;9853;50.848;4.108;2023-04-24T03:53:27;10.18;;;4.97;;
19434;SDS011;9853;50.848;4.108;2023-04-24T03:55:29;8.57;;;5.35;;
19434;SDS011;9853;50.848;4.108;2023-04-24T03:57:30;10.65;;;6.07;;
19434;SDS011;9853;50.848;4.108;2023-04-24T03:59:46;11.13;;;5.90;;
19434;SDS011;9853;50.848;4.108;2023-04-24T04:01:51;7.07;;;5.63;;
19434;SDS011;9853;50.848;4.108;2023-04-24T04:03:52;8.77;;;5.25;;
19434;SDS011;9853;50.848;4.108;2023-04-24T04:05:56;14.25;;;5.55;;
19434;SDS011;9853;50.848;4.108;2023-04-24T04:07:57;8.70;;;4.93;;
19434;SDS011;9853;50.848;4.108;2023-04-24T04:09:57;10.60;;;5.53;;
19434;SDS011;9853;50.848;4.108;2023-04-24T04:11:58;8.43;;;4.47;;
19434;SDS011;9853;50.848;4.108;2023-04-24T04:14:00;9.03;;;4.97;;
19434;SDS011;9853;50.848;4.108;2023-04-24T04:16:01;10.88;;;5.35;;
19434;SDS011;9853;50.848;4.108;2023-04-24T04:18:02;8.25;;;5.53;;
19434;SDS011;9853;50.848;4.108;2023-04-24T04:20:03;13.02;;;5.80;;
19434;SDS011;9853;50.848;4.108;2023-04-24T04:22:10;10.53;;;5.50;;
19434;SDS011;9853;50.848;4.108;2023-04-24T04:24:16;15.20;;;6.45;;
19434;SDS011;9853;50.848;4.108;2023-04-24T04:26:19;10.10;;;6.00;;
19434;SDS011;9853;50.848;4.108;2023-04-24T04:28:39;11.93;;;6.77;;
19434;SDS011;9853;50.848;4.108;2023-04-24T04:30:40;14.30;;;7.87;;
19434;SDS011;9853;50.848;4.108;2023-04-24T04:32:41;14.83;;;8.10;;
19434;SDS011;9853;50.848;4.108;2023-04-24T04:34:42;15.67;;;7.87;;
19434;SDS011;9853;50.848;4.108;2023-04-24T04:36:45;10.93;;;5.57;;
19434;SDS011;9853;50.848;4.108;2023-04-24T04:39:19;14.33;;;6.30;;
19434;SDS011;9853;50.848;4.108;2023-04-24T04:41:46;16.40;;;9.37;;
19434;SDS011;9853;50.848;4.108;2023-04-24T04:43:48;20.83;;;9.17;;
19434;SDS011;9853;50.848;4.108;2023-04-24T04:45:51;19.70;;;9.33;;
19434;SDS011;9853;50.848;4.108;2023-04-24T04:48:01;24.13;;;10.17;;
19434;SDS011;9853;50.848;4.108;2023-04-24T04:50:04;21.33;;;9.47;;
19434;SDS011;9853;50.848;4.108;2023-04-24T04:52:06;23.30;;;10.50;;
19434;SDS011;9853;50.848;4.108;2023-04-24T04:54:08;18.50;;;10.07;;
19434;SDS011;9853;50.848;4.108;2023-04-24T04:56:10;17.23;;;10.37;;
19434;SDS011;9853;50.848;4.108;2023-04-24T04:58:14;22.43;;;11.23;;
19434;SDS011;9853;50.848;4.108;2023-04-24T05:00:15;29.70;;;10.90;;
19434;SDS011;9853;50.848;4.108;2023-04-24T05:02:22;21.37;;;11.57;;
19434;SDS011;9853;50.848;4.108;2023-04-24T05:04:23;26.30;;;11.30;;
19434;SDS011;9853;50.848;4.108;2023-04-24T05:06:23;27.03;;;12.23;;
19434;SDS011;9853;50.848;4.108;2023-04-24T05:08:26;25.57;;;12.27;;
19434;SDS011;9853;50.848;4.108;2023-04-24T05:10:27;23.53;;;12.03;;
19434;SDS011;9853;50.848;4.108;2023-04-24T05:12:29;28.60;;;12.57;;
19434;SDS011;9853;50.848;4.108;2023-04-24T05:14:31;26.92;;;12.48;;
19434;SDS011;9853;50.848;4.108;2023-04-24T05:16:31;20.48;;;11.70;;
19434;SDS011;9853;50.848;4.108;2023-04-24T05:18:33;18.30;;;10.20;;
19434;SDS011;9853;50.848;4.108;2023-04-24T05:20:34;20.02;;;11.52;;
19434;SDS011;9853;50.848;4.108;2023-04-24T05:22:35;24.97;;;10.63;;
19434;SDS011;9853;50.848;4.108;2023-04-24T05:24:37;24.20;;;11.67;;
19434;SDS011;9853;50.848;4.108;2023-04-24T05:26:58;23.00;;;11.57;;
19434;SDS011;9853;50.848;4.108;2023-04-24T05:29:05;24.17;;;10.80;;
19434;SDS011;9853;50.848;4.108;2023-04-24T05:31:05;20.55;;;11.23;;
19434;SDS011;9853;50.848;4.108;2023-04-24T05:33:06;22.73;;;10.90;;
19434;SDS011;9853;50.848;4.108;2023-04-24T05:35:09;24.42;;;11.30;;
19434;SDS011;9853;50.848;4.108;2023-04-24T05:37:13;19.83;;;12.27;;
19434;SDS011;9853;50.848;4.108;2023-04-24T05:39:15;21.90;;;10.98;;
19434;SDS011;9853;50.848;4.108;2023-04-24T05:41:15;31.33;;;11.23;;
19434;SDS011;9853;50.848;4.108;2023-04-24T05:43:16;21.27;;;10.50;;
19434;SDS011;9853;50.848;4.108;2023-04-24T05:45:17;23.23;;;10.30;;
19434;SDS011;9853;50.848;4.108;2023-04-24T05:47:18;22.92;;;10.23;;
19434;SDS011;9853;50.848;4.108;2023-04-24T05:49:18;27.75;;;10.55;;
19434;SDS011;9853;50.848;4.108;2023-04-24T05:51:20;18.50;;;10.00;;
19434;SDS011;9853;50.848;4.108;2023-04-24T05:53:21;19.02;;;10.45;;
19434;SDS011;9853;50.848;4.108;2023-04-24T05:55:22;25.70;;;11.25;;
19434;SDS011;9853;50.848;4.108;2023-04-24T05:57:23;28.70;;;10.95;;
19434;SDS011;9853;50.848;4.108;2023-04-24T05:59:30;27.77;;;10.77;;
19434;SDS011;9853;50.848;4.108;2023-04-24T06:01:31;31.20;;;10.88;;
19434;SDS011;9853;50.848;4.108;2023-04-24T06:03:41;24.55;;;10.77;;
19434;SDS011;9853;50.848;4.108;2023-04-24T06:05:42;23.08;;;10.85;;
19434;SDS011;9853;50.848;4.108;2023-04-24T06:07:43;26.83;;;11.30;;
19434;SDS011;9853;50.848;4.108;2023-04-24T06:09:46;22.83;;;11.40;;
19434;SDS011;9853;50.848;4.108;2023-04-24T06:11:48;29.20;;;11.55;;
19434;SDS011;9853;50.848;4.108;2023-04-24T06:13:53;24.80;;;12.17;;
19434;SDS011;9853;50.848;4.108;2023-04-24T06:16:12;51.78;;;28.02;;
19434;SDS011;9853;50.848;4.108;2023-04-24T06:18:16;83.40;;;45.20;;
19434;SDS011;9853;50.848;4.108;2023-04-24T06:20:17;26.55;;;15.02;;
19434;SDS011;9853;50.848;4.108;2023-04-24T06:22:19;26.73;;;12.00;;
19434;SDS011;9853;50.848;4.108;2023-04-24T06:24:22;33.03;;;18.08;;
19434;SDS011;9853;50.848;4.108;2023-04-24T06:26:27;30.35;;;16.02;;
19434;SDS011;9853;50.848;4.108;2023-04-24T06:28:28;27.35;;;13.57;;
19434;SDS011;9853;50.848;4.108;2023-04-24T06:30:29;36.33;;;16.88;;
19434;SDS011;9853;50.848;4.108;2023-04-24T06:32:30;30.02;;;15.35;;
19434;SDS011;9853;50.848;4.108;2023-04-24T06:34:33;31.77;;;15.32;;
19434;SDS011;9853;50.848;4.108;2023-04-24T06:36:36;29.95;;;14.88;;
19434;SDS011;9853;50.848;4.108;2023-04-24T06:38:37;33.20;;;15.02;;
19434;SDS011;9853;50.848;4.108;2023-04-24T06:40:38;32.67;;;14.88;;
19434;SDS011;9853;50.848;4.108;2023-04-24T06:42:39;31.63;;;15.02;;
19434;SDS011;9853;50.848;4.108;2023-04-24T06:44:42;26.20;;;14.07;;
19434;SDS011;9853;50.848;4.108;2023-04-24T06:46:43;34.30;;;14.48;;
19434;SDS011;9853;50.848;4.108;2023-04-24T06:48:44;37.75;;;14.60;;
19434;SDS011;9853;50.848;4.108;2023-04-24T06:50:45;30.45;;;14.65;;
19434;SDS011;9853;50.848;4.108;2023-04-24T06:52:46;29.50;;;15.32;;
19434;SDS011;9853;50.848;4.108;2023-04-24T06:54:47;34.92;;;15.93;;
19434;SDS011;9853;50.848;4.108;2023-04-24T06:56:49;38.42;;;16.17;;
19434;SDS011;9853;50.848;4.108;2023-04-24T06:58:51;32.25;;;14.93;;
19434;SDS011;9853;50.848;4.108;2023-04-24T07:00:52;43.60;;;14.88;;
19434;SDS011;9853;50.848;4.108;2023-04-24T07:02:53;31.35;;;14.13;;
19434;SDS011;9853;50.848;4.108;2023-04-24T07:04:53;31.17;;;14.45;;
19434;SDS011;9853;50.848;4.108;2023-04-24T07:06:54;35.35;;;13.70;;
19434;SDS011;9853;50.848;4.108;2023-04-24T07:08:56;29.40;;;14.45;;
19434;SDS011;9853;50.848;4.108;2023-04-24T07:10:56;26.95;;;14.20;;
19434;SDS011;9853;50.848;4.108;2023-04-24T07:12:57;43.95;;;14.60;;
19434;SDS011;9853;50.848;4.108;2023-04-24T07:15:00;36.55;;;14.63;;
19434;SDS011;9853;50.848;4.108;2023-04-24T07:17:01;31.17;;;15.20;;
19434;SDS011;9853;50.848;4.108;2023-04-24T07:19:04;27.48;;;14.80;;
19434;SDS011;9853;50.848;4.108;2023-04-24T07:21:06;32.35;;;14.15;;
19434;SDS011;9853;50.848;4.108;2023-04-24T07:23:07;34.30;;;13.20;;
19434;SDS011;9853;50.848;4.108;2023-04-24T07:25:08;25.92;;;12.95;;
19434;SDS011;9853;50.848;4.108;2023-04-24T07:27:09;30.23;;;13.32;;
19434;SDS011;9853;50.848;4.108;2023-04-24T07:29:10;21.48;;;11.32;;
19434;SDS011;9853;50.848;4.108;2023-04-24T07:31:11;24.60;;;12.13;;
19434;SDS011;9853;50.848;4.108;2023-04-24T07:33:11;26.63;;;12.43;;
19434;SDS011;9853;50.848;4.108;2023-04-24T07:35:13;27.08;;;11.18;;
19434;SDS011;9853;50.848;4.108;2023-04-24T07:37:14;25.35;;;10.43;;
19434;SDS011;9853;50.848;4.108;2023-04-24T07:39:15;24.65;;;10.00;;
19434;SDS011;9853;50.848;4.108;2023-04-24T07:41:15;23.88;;;9.65;;
19434;SDS011;9853;50.848;4.108;2023-04-24T07:43:16;24.38;;;9.68;;
19434;SDS011;9853;50.848;4.108;2023-04-24T07:45:21;31.58;;;12.57;;
19434;SDS011;9853;50.848;4.108;2023-04-24T07:47:23;19.48;;;8.55;;
19434;SDS011;9853;50.848;4.108;2023-04-24T07:49:24;22.90;;;8.48;;
19434;SDS011;9853;50.848;4.108;2023-04-24T07:51:25;22.13;;;8.73;;
19434;SDS011;9853;50.848;4.108;2023-04-24T07:53:27;22.73;;;7.85;;
19434;SDS011;9853;50.848;4.108;2023-04-24T07:55:28;18.48;;;7.57;;
19434;SDS011;9853;50.848;4.108;2023-04-24T07:57:32;22.95;;;8.55;;
19434;SDS011;9853;50.848;4.108;2023-04-24T07:59:34;17.42;;;6.15;;
19434;SDS011;9853;50.848;4.108;2023-04-24T08:01:35;21.70;;;7.20;;
19434;SDS011;9853;50.848;4.108;2023-04-24T08:03:36;16.95;;;7.97;;
19434;SDS011;9853;50.848;4.108;2023-04-24T08:05:37;16.08;;;7.35;;
19434;SDS011;9853;50.848;4.108;2023-04-24T08:07:38;22.95;;;7.90;;
19434;SDS011;9853;50.848;4.108;2023-04-24T08:09:42;18.40;;;7.47;;
19434;SDS011;9853;50.848;4.108;2023-04-24T08:11:43;21.95;;;7.95;;
19434;SDS011;9853;50.848;4.108;2023-04-24T08:13:47;18.85;;;6.28;;
19434;SDS011;9853;50.848;4.108;2023-04-24T08:15:47;23.88;;;7.18;;
19434;SDS011;9853;50.848;4.108;2023-04-24T08:17:48;15.77;;;6.53;;
19434;SDS011;9853;50.848;4.108;2023-04-24T08:19:50;12.70;;;6.03;;
19434;SDS011;9853;50.848;4.108;2023-04-24T08:21:56;16.40;;;6.15;;
19434;SDS011;9853;50.848;4.108;2023-04-24T08:23:57;17.33;;;6.57;;
19434;SDS011;9853;50.848;4.108;2023-04-24T08:25:58;16.50;;;6.22;;
19434;SDS011;9853;50.848;4.108;2023-04-24T08:27:58;7.15;;;3.13;;
19434;SDS011;9853;50.848;4.108;2023-04-24T08:29:59;12.63;;;5.10;;
19434;SDS011;9853;50.848;4.108;2023-04-24T08:32:00;17.95;;;4.53;;
19434;SDS011;9853;50.848;4.108;2023-04-24T08:34:04;14.60;;;4.55;;
19434;SDS011;9853;50.848;4.108;2023-04-24T08:36:05;10.82;;;3.42;;
19434;SDS011;9853;50.848;4.108;2023-04-24T08:38:06;13.25;;;4.15;;
19434;SDS011;9853;50.848;4.108;2023-04-24T08:40:12;14.75;;;4.75;;
19434;SDS011;9853;50.848;4.108;2023-04-24T08:42:17;9.32;;;4.03;;
19434;SDS011;9853;50.848;4.108;2023-04-24T08:44:22;11.40;;;4.18;;
19434;SDS011;9853;50.848;4.108;2023-04-24T08:46:23;12.43;;;4.70;;
19434;SDS011;9853;50.848;4.108;2023-04-24T08:48:25;13.45;;;3.25;;
19434;SDS011;9853;50.848;4.108;2023-04-24T08:50:26;11.07;;;3.85;;
19434;SDS011;9853;50.848;4.108;2023-04-24T08:52:29;13.80;;;3.75;;
19434;SDS011;9853;50.848;4.108;2023-04-24T08:54:30;7.28;;;3.08;;
19434;SDS011;9853;50.848;4.108;2023-04-24T09:14:58;19.48;;;4.28;;
19434;SDS011;9853;50.848;4.108;2023-04-24T09:17:31;9.63;;;3.72;;
19434;SDS011;9853;50.848;4.108;2023-04-24T09:19:36;11.65;;;3.10;;
19434;SDS011;9853;50.848;4.108;2023-04-24T09:21:37;7.47;;;2.95;;
19434;SDS011;9853;50.848;4.108;2023-04-24T09:23:38;8.73;;;3.10;;
19434;SDS011;9853;50.848;4.108;2023-04-24T09:25:39;11.65;;;3.05;;
19434;SDS011;9853;50.848;4.108;2023-04-24T09:27:41;9.43;;;2.80;;
19434;SDS011;9853;50.848;4.108;2023-04-24T09:29:55;10.85;;;3.30;;
19434;SDS011;9853;50.848;4.108;2023-04-24T09:31:57;10.25;;;3.05;;
19434;SDS011;9853;50.848;4.108;2023-04-24T09:33:58;9.02;;;3.22;;
19434;SDS011;9853;50.848;4.108;2023-04-24T09:36:04;8.80;;;3.35;;
19434;SDS011;9853;50.848;4.108;2023-04-24T09:38:06;13.18;;;3.88;;
19434;SDS011;9853;50.848;4.108;2023-04-24T09:40:14;9.55;;;3.03;;
19434;SDS011;9853;50.848;4.108;2023-04-24T09:42:20;9.38;;;2.80;;
19434;SDS011;9853;50.848;4.108;2023-04-24T09:44:27;9.93;;;3.00;;
19434;SDS011;9853;50.848;4.108;2023-04-24T09:46:29;11.93;;;3.17;;
19434;SDS011;9853;50.848;4.108;2023-04-24T09:48:37;12.80;;;2.95;;
19434;SDS011;9853;50.848;4.108;2023-04-24T09:50:42;11.15;;;3.35;;
19434;SDS011;9853;50.848;4.108;2023-04-24T09:53:00;12.05;;;3.38;;
19434;SDS011;9853;50.848;4.108;2023-04-24T09:55:10;11.27;;;3.58;;
19434;SDS011;9853;50.848;4.108;2023-04-24T09:57:14;12.82;;;3.70;;
19434;SDS011;9853;50.848;4.108;2023-04-24T09:59:18;14.00;;;4.10;;
19434;SDS011;9853;50.848;4.108;2023-04-24T10:01:30;12.90;;;4.50;;
19434;SDS011;9853;50.848;4.108;2023-04-24T10:03:34;12.10;;;3.88;;
19434;SDS011;9853;50.848;4.108;2023-04-24T10:05:36;17.80;;;4.93;;
19434;SDS011;9853;50.848;4.108;2023-04-24T10:10:07;14.20;;;4.15;;
19434;SDS011;9853;50.848;4.108;2023-04-24T10:14:22;11.02;;;4.40;;
19434;SDS011;9853;50.848;4.108;2023-04-24T10:16:26;13.85;;;5.05;;
19434;SDS011;9853;50.848;4.108;2023-04-24T10:19:11;12.70;;;4.25;;
19434;SDS011;9853;50.848;4.108;2023-04-24T10:21:21;13.32;;;4.45;;
19434;SDS011;9853;50.848;4.108;2023-04-24T10:23:29;11.98;;;3.90;;
19434;SDS011;9853;50.848;4.108;2023-04-24T10:25:36;12.07;;;4.25;;
19434;SDS011;9853;50.848;4.108;2023-04-24T10:27:38;12.05;;;4.32;;
19434;SDS011;9853;50.848;4.108;2023-04-24T10:32:43;9.95;;;4.20;;
19434;SDS011;9853;50.848;4.108;2023-04-24T10:41:11;7.80;;;4.18;;
19434;SDS011;9853;50.848;4.108;2023-04-24T10:43:23;14.85;;;5.05;;
19434;SDS011;9853;50.848;4.108;2023-04-24T10:45:27;14.57;;;4.70;;
19434;SDS011;9853;50.848;4.108;2023-04-24T10:47:29;11.77;;;3.95;;
19434;SDS011;9853;50.848;4.108;2023-04-24T10:49:31;11.05;;;4.10;;
19434;SDS011;9853;50.848;4.108;2023-04-24T10:51:46;10.27;;;4.40;;
19434;SDS011;9853;50.848;4.108;2023-04-24T10:53:55;9.20;;;3.72;;
19434;SDS011;9853;50.848;4.108;2023-04-24T10:56:09;11.05;;;3.97;;
19434;SDS011;9853;50.848;4.108;2023-04-24T10:58:16;11.05;;;4.13;;
19434;SDS011;9853;50.848;4.108;2023-04-24T11:00:28;9.13;;;4.30;;
19434;SDS011;9853;50.848;4.108;2023-04-24T11:02:37;11.27;;;4.65;;
19434;SDS011;9853;50.848;4.108;2023-04-24T11:04:48;8.85;;;4.07;;
19434;SDS011;9853;50.848;4.108;2023-04-24T11:07:09;11.57;;;4.40;;
19434;SDS011;9853;50.848;4.108;2023-04-24T11:09:11;10.57;;;4.63;;
19434;SDS011;9853;50.848;4.108;2023-04-24T11:11:33;10.77;;;4.65;;
19434;SDS011;9853;50.848;4.108;2023-04-24T11:16:12;13.55;;;5.78;;
19434;SDS011;9853;50.848;4.108;2023-04-24T11:21:17;10.38;;;4.68;;
19434;SDS011;9853;50.848;4.108;2023-04-24T11:23:18;9.63;;;5.00;;
19434;SDS011;9853;50.848;4.108;2023-04-24T11:25:23;9.75;;;5.10;;
19434;SDS011;9853;50.848;4.108;2023-04-24T11:27:38;14.80;;;5.40;;
19434;SDS011;9853;50.848;4.108;2023-04-24T11:29:51;18.15;;;5.18;;
19434;SDS011;9853;50.848;4.108;2023-04-24T11:32:14;12.15;;;4.57;;
19434;SDS011;9853;50.848;4.108;2023-04-24T11:34:17;11.98;;;5.05;;
19434;SDS011;9853;50.848;4.108;2023-04-24T11:36:19;11.40;;;5.13;;
19434;SDS011;9853;50.848;4.108;2023-04-24T11:38:20;12.68;;;4.82;;
19434;SDS011;9853;50.848;4.108;2023-04-24T11:40:22;12.38;;;5.38;;
19434;SDS011;9853;50.848;4.108;2023-04-24T11:42:23;10.60;;;5.28;;
19434;SDS011;9853;50.848;4.108;2023-04-24T11:44:27;17.80;;;4.63;;
19434;SDS011;9853;50.848;4.108;2023-04-24T11:46:30;13.98;;;5.32;;
19434;SDS011;9853;50.848;4.108;2023-04-24T11:48:34;13.82;;;4.90;;
19434;SDS011;9853;50.848;4.108;2023-04-24T11:50:46;9.13;;;5.10;;
19434;SDS011;9853;50.848;4.108;2023-04-24T11:52:47;10.98;;;5.65;;
19434;SDS011;9853;50.848;4.108;2023-04-24T11:54:52;12.40;;;5.22;;
19434;SDS011;9853;50.848;4.108;2023-04-24T11:57:03;14.90;;;5.88;;
19434;SDS011;9853;50.848;4.108;2023-04-24T11:59:06;16.92;;;5.88;;
19434;SDS011;9853;50.848;4.108;2023-04-24T12:01:07;14.40;;;6.15;;
19434;SDS011;9853;50.848;4.108;2023-04-24T12:03:17;13.15;;;5.57;;
19434;SDS011;9853;50.848;4.108;2023-04-24T12:05:22;12.43;;;4.68;;
19434;SDS011;9853;50.848;4.108;2023-04-24T12:07:24;14.23;;;5.93;;
19434;SDS011;9853;50.848;4.108;2023-04-24T12:09:25;11.05;;;4.22;;
19434;SDS011;9853;50.848;4.108;2023-04-24T12:11:27;12.65;;;5.05;;
19434;SDS011;9853;50.848;4.108;2023-04-24T12:13:31;9.40;;;4.80;;
19434;SDS011;9853;50.848;4.108;2023-04-24T12:15:35;11.13;;;5.10;;
19434;SDS011;9853;50.848;4.108;2023-04-24T12:17:35;8.45;;;4.47;;
19434;SDS011;9853;50.848;4.108;2023-04-24T12:19:45;9.23;;;4.57;;
19434;SDS011;9853;50.848;4.108;2023-04-24T12:24:19;13.25;;;4.50;;
19434;SDS011;9853;50.848;4.108;2023-04-24T12:26:26;10.43;;;4.40;;
19434;SDS011;9853;50.848;4.108;2023-04-24T12:28:38;9.18;;;4.90;;
19434;SDS011;9853;50.848;4.108;2023-04-24T12:32:45;10.63;;;4.43;;
19434;SDS011;9853;50.848;4.108;2023-04-24T12:34:52;8.35;;;3.53;;
19434;SDS011;9853;50.848;4.108;2023-04-24T12:37:09;8.95;;;3.83;;
19434;SDS011;9853;50.848;4.108;2023-04-24T12:39:17;12.02;;;4.32;;
19434;SDS011;9853;50.848;4.108;2023-04-24T12:41:33;10.38;;;3.67;;
19434;SDS011;9853;50.848;4.108;2023-04-24T12:43:50;10.07;;;3.70;;
19434;SDS011;9853;50.848;4.108;2023-04-24T12:45:55;7.53;;;3.63;;
19434;SDS011;9853;50.848;4.108;2023-04-24T12:48:02;6.30;;;3.10;;
19434;SDS011;9853;50.848;4.108;2023-04-24T12:50:18;6.25;;;3.45;;
19434;SDS011;9853;50.848;4.108;2023-04-24T12:52:19;9.93;;;3.25;;
19434;SDS011;9853;50.848;4.108;2023-04-24T12:54:24;8.50;;;3.00;;
19434;SDS011;9853;50.848;4.108;2023-04-24T12:56:25;9.68;;;3.58;;
19434;SDS011;9853;50.848;4.108;2023-04-24T12:58:34;9.40;;;3.40;;
19434;SDS011;9853;50.848;4.108;2023-04-24T13:00:46;9.40;;;3.30;;
19434;SDS011;9853;50.848;4.108;2023-04-24T13:03:12;9.10;;;2.85;;
19434;SDS011;9853;50.848;4.108;2023-04-24T13:05:32;9.23;;;3.17;;